createdAt,value
2019-02-23T00:03:06.689Z,20.80
2019-02-23T00:07:14.917Z,20.00
2019-02-23T00:11:26.241Z,21.00
2019-02-23T00:15:34.485Z,18.90
2019-02-23T00:19:42.749Z,20.43
2019-02-23T00:23:51.010Z,20.93
2019-02-23T00:27:59.260Z,20.97
2019-02-23T00:32:07.481Z,23.20
2019-02-23T00:36:15.739Z,22.77
2019-02-23T00:40:24.011Z,21.63
2019-02-23T00:44:32.235Z,21.93
2019-02-23T00:48:40.497Z,20.77
2019-02-23T00:52:48.811Z,21.60
2019-02-23T00:56:57.077Z,20.27
2019-02-23T01:01:05.355Z,21.67
2019-02-23T01:05:13.642Z,21.23
2019-02-23T01:09:21.905Z,20.60
2019-02-23T01:13:30.172Z,21.00
2019-02-23T01:17:38.435Z,20.93
2019-02-23T01:21:46.723Z,21.40
2019-02-23T01:25:54.962Z,19.67
2019-02-23T01:30:03.349Z,20.33
2019-02-23T01:34:11.566Z,19.50
2019-02-23T01:38:19.870Z,20.07
2019-02-23T01:42:28.121Z,19.90
2019-02-23T01:46:36.333Z,18.50
2019-02-23T01:50:44.603Z,16.80
2019-02-23T01:54:52.817Z,19.60
2019-02-23T01:59:01.106Z,20.20
2019-02-23T02:03:09.402Z,19.97
2019-02-23T02:07:17.423Z,18.80
2019-02-23T02:11:25.696Z,22.40
2019-02-23T02:15:33.948Z,20.53
2019-02-23T02:19:42.204Z,20.70
2019-02-23T02:23:50.490Z,21.07
2019-02-23T02:27:58.694Z,20.57
2019-02-23T02:32:06.929Z,20.23
2019-02-23T02:36:15.194Z,21.33
2019-02-23T02:40:23.509Z,21.23
2019-02-23T02:44:31.741Z,19.87
2019-02-23T02:48:39.974Z,20.37
2019-02-23T02:52:48.231Z,19.33
2019-02-23T02:56:56.247Z,17.77
2019-02-23T03:01:04.503Z,19.40
2019-02-23T03:05:12.751Z,17.93
2019-02-23T03:09:21.018Z,18.00
2019-02-23T03:13:29.292Z,17.63
2019-02-23T03:17:37.519Z,18.80
2019-02-23T03:21:45.826Z,19.60
2019-02-23T03:25:54.097Z,17.27
2019-02-23T03:30:02.377Z,18.60
2019-02-23T03:34:10.587Z,19.90
2019-02-23T03:38:18.862Z,18.73
2019-02-23T03:42:27.088Z,18.97
2019-02-23T03:46:35.330Z,17.70
2019-02-23T03:50:48.912Z,17.30
2019-02-23T03:54:51.874Z,18.43
2019-02-23T03:59:00.114Z,18.03
2019-02-23T04:03:08.350Z,18.20
2019-02-23T04:07:16.667Z,17.43
2019-02-23T04:11:24.903Z,16.60
2019-02-23T04:15:33.158Z,17.83
2019-02-23T04:19:41.393Z,16.57
2019-02-23T04:23:49.639Z,18.80
2019-02-23T04:27:57.870Z,18.27
2019-02-23T04:32:06.111Z,19.20
2019-02-23T04:36:14.362Z,18.20
2019-02-23T04:40:22.631Z,17.57
2019-02-23T04:44:30.857Z,16.10
2019-02-23T04:48:39.088Z,18.03
2019-02-23T04:52:47.347Z,17.40
2019-02-23T04:56:55.582Z,16.37
2019-02-23T05:01:03.835Z,16.77
2019-02-23T05:05:12.092Z,16.13
2019-02-23T05:09:20.317Z,15.63
2019-02-23T05:13:28.564Z,17.30
2019-02-23T05:17:36.885Z,15.17
2019-02-23T05:21:45.091Z,15.03
2019-02-23T05:25:53.346Z,15.67
2019-02-23T05:30:01.568Z,14.40
2019-02-23T05:34:09.815Z,14.27
2019-02-23T05:38:18.059Z,13.83
2019-02-23T05:42:26.064Z,15.73
2019-02-23T05:46:34.326Z,17.00
2019-02-23T05:50:42.594Z,15.20
2019-02-23T05:54:50.871Z,15.73
2019-02-23T05:58:59.091Z,17.40
2019-02-23T06:03:07.322Z,15.83
2019-02-23T06:07:15.565Z,15.10
2019-02-23T06:11:23.787Z,17.42
2019-02-23T06:15:32.025Z,13.03
2019-02-23T06:19:40.257Z,17.50
2019-02-23T06:23:48.514Z,17.17
2019-02-23T06:27:56.737Z,14.80
2019-02-23T06:32:04.988Z,16.87
2019-02-23T06:36:13.215Z,16.10
2019-02-23T06:40:21.503Z,15.60
2019-02-23T06:44:29.698Z,16.10
2019-02-23T06:48:37.988Z,16.80
2019-02-23T06:52:46.215Z,15.87
2019-02-23T06:56:54.473Z,14.83
2019-02-23T07:01:02.713Z,14.37
2019-02-23T07:05:11.030Z,14.30
2019-02-23T07:09:19.269Z,14.40
2019-02-23T07:13:27.517Z,17.33
2019-02-23T07:17:35.807Z,17.10
2019-02-23T07:21:44.002Z,17.20
2019-02-23T07:25:52.245Z,17.43
2019-02-23T07:30:00.467Z,16.87
2019-02-23T07:34:08.736Z,16.33
2019-02-23T07:38:17.034Z,15.57
2019-02-23T07:42:25.254Z,17.40
2019-02-23T07:46:33.574Z,16.20
2019-02-23T07:50:41.814Z,13.60
2019-02-23T07:54:50.066Z,16.20
2019-02-23T07:58:58.318Z,13.20
2019-02-23T08:03:06.640Z,13.57
2019-02-23T08:07:14.866Z,13.50
2019-02-23T08:11:23.118Z,13.97
2019-02-23T08:15:31.397Z,13.80
2019-02-23T08:19:39.620Z,14.30
2019-02-23T08:23:47.960Z,14.60
2019-02-23T08:27:56.138Z,14.50
2019-02-23T08:32:04.381Z,16.10
2019-02-23T08:36:12.605Z,16.97
2019-02-23T08:40:20.849Z,15.65
2019-02-23T08:44:29.091Z,13.07
2019-02-23T08:48:37.344Z,15.70
2019-02-23T08:52:50.010Z,15.57
2019-02-23T08:56:55.333Z,14.77
2019-02-23T09:01:02.165Z,14.60
2019-02-23T09:05:10.850Z,16.20
2019-02-23T09:09:19.116Z,12.63
2019-02-23T09:13:27.384Z,12.57
2019-02-23T09:17:35.667Z,13.77
2019-02-23T09:21:43.693Z,12.78
2019-02-23T09:25:51.996Z,12.97
2019-02-23T09:30:00.322Z,12.40
2019-02-23T09:34:08.491Z,13.33
2019-02-23T09:38:16.777Z,12.43
2019-02-23T09:42:25.006Z,12.60
2019-02-23T09:46:33.226Z,11.33
2019-02-23T09:50:41.487Z,10.50
2019-02-23T09:54:49.700Z,12.23
2019-02-23T09:58:57.968Z,13.40
2019-02-23T10:03:06.215Z,14.10
2019-02-23T10:07:14.474Z,11.80
2019-02-23T10:11:22.717Z,11.60
2019-02-23T10:15:30.948Z,11.20
2019-02-23T10:19:39.233Z,10.87
2019-02-23T10:23:47.500Z,10.03
2019-02-23T10:27:55.758Z,11.67
2019-02-23T10:32:04.026Z,10.98
2019-02-23T10:36:12.412Z,12.00
2019-02-23T10:40:20.799Z,10.47
2019-02-23T10:44:29.045Z,10.77
2019-02-23T10:48:37.299Z,11.33
2019-02-23T10:52:46.726Z,10.53
2019-02-23T10:56:54.970Z,10.80
2019-02-23T11:01:03.282Z,11.90
2019-02-23T11:05:11.566Z,10.73
2019-02-23T11:09:23.778Z,10.40
2019-02-23T11:13:33.150Z,12.37
2019-02-23T11:17:41.418Z,10.33
2019-02-23T11:21:49.669Z,9.60
2019-02-23T11:25:57.913Z,9.65
2019-02-23T11:30:07.217Z,9.17
2019-02-23T11:34:15.449Z,9.60
2019-02-23T11:38:23.699Z,10.30
2019-02-23T11:42:31.982Z,9.10
2019-02-23T11:46:45.190Z,9.30
2019-02-23T11:50:49.580Z,9.67
2019-02-23T11:54:57.838Z,9.20
2019-02-23T11:59:05.838Z,8.47
2019-02-23T12:03:14.103Z,9.30
2019-02-23T12:07:22.374Z,11.90
2019-02-23T12:11:30.608Z,13.33
2019-02-23T12:15:38.912Z,11.40
2019-02-23T12:19:47.230Z,12.30
2019-02-23T12:24:05.480Z,12.40
2019-02-23T12:28:03.752Z,12.63
2019-02-23T12:32:12.042Z,11.37
2019-02-23T12:36:20.281Z,11.40
2019-02-23T12:40:28.533Z,12.20
2019-02-23T12:44:36.761Z,12.97
2019-02-23T12:48:45.013Z,12.87
2019-02-23T12:52:53.282Z,12.70
2019-02-23T12:57:01.522Z,11.90
2019-02-23T13:01:09.786Z,10.83
2019-02-23T13:05:18.211Z,10.23
2019-02-23T13:09:30.505Z,10.70
2019-02-23T13:13:50.201Z,8.13
2019-02-23T13:18:11.214Z,7.90
2019-02-23T13:22:34.213Z,8.83
2019-02-23T13:28:01.663Z,7.30
2019-02-23T13:32:23.389Z,8.47
2019-02-23T13:36:44.929Z,8.17
2019-02-23T13:42:07.734Z,7.57
2019-02-23T13:46:45.964Z,7.87
2019-02-23T13:51:09.397Z,7.60
2019-02-23T13:55:49.841Z,7.80
2019-02-23T14:00:07.281Z,8.10
2019-02-23T14:05:35.686Z,8.10
2019-02-23T14:10:04.926Z,8.30
2019-02-23T14:14:27.183Z,8.70
2019-02-23T14:18:49.339Z,7.53
2019-02-23T14:25:17.048Z,7.70
2019-02-23T14:29:35.591Z,7.40
2019-02-23T14:34:11.165Z,7.00
2019-02-23T14:38:33.404Z,7.27
2019-02-23T14:42:57.916Z,8.40
2019-02-23T14:47:18.457Z,6.30
2019-02-23T14:52:47.065Z,7.27
2019-02-23T14:57:09.779Z,7.17
2019-02-23T15:01:45.067Z,6.97
2019-02-23T15:06:11.242Z,7.57
2019-02-23T15:10:40.686Z,6.83
2019-02-23T15:15:38.261Z,6.83
2019-02-23T15:19:57.778Z,7.03
2019-02-23T15:24:17.789Z,7.47
2019-02-23T15:28:44.038Z,6.10
2019-02-23T15:33:45.465Z,6.57
2019-02-23T15:38:36.982Z,7.20
2019-02-23T15:43:02.083Z,7.37
2019-02-23T15:47:28.838Z,6.80
2019-02-23T15:51:37.110Z,7.07
2019-02-23T15:55:45.341Z,6.80
2019-02-23T15:59:53.568Z,6.70
2019-02-23T16:04:01.871Z,6.53
2019-02-23T16:08:10.191Z,6.75
2019-02-23T16:12:18.543Z,6.87
2019-02-23T16:16:26.801Z,6.57
2019-02-23T16:20:35.090Z,6.90
2019-02-23T16:24:44.410Z,6.07
2019-02-23T16:28:55.695Z,7.33
2019-02-23T16:33:01.007Z,6.27
2019-02-23T16:37:09.202Z,6.57
2019-02-23T16:41:17.488Z,7.70
2019-02-23T16:45:25.751Z,7.90
2019-02-23T16:49:34.021Z,7.63
2019-02-23T16:53:42.283Z,8.30
2019-02-23T16:57:50.292Z,8.00
2019-02-23T17:01:58.535Z,8.17
2019-02-23T17:06:06.763Z,7.13
2019-02-23T17:10:15.027Z,7.83
2019-02-23T17:14:23.285Z,7.00
2019-02-23T17:18:31.502Z,8.10
2019-02-23T17:22:39.785Z,7.30
2019-02-23T17:26:48.026Z,8.33
2019-02-23T17:30:56.254Z,7.30
2019-02-23T17:35:04.676Z,7.00
2019-02-23T17:39:13.018Z,7.47
2019-02-23T17:43:21.207Z,7.50
2019-02-23T17:47:29.443Z,6.90
2019-02-23T17:51:37.690Z,6.77
2019-02-23T17:55:45.947Z,7.50
2019-02-23T17:59:54.190Z,8.27
2019-02-23T18:04:02.426Z,8.93
2019-02-23T18:08:10.696Z,8.50
2019-02-23T18:12:18.976Z,7.57
2019-02-23T18:16:27.204Z,7.87
2019-02-23T18:20:35.552Z,7.40
2019-02-23T18:24:43.775Z,7.97
2019-02-23T18:28:52.044Z,8.70
2019-02-23T18:33:00.272Z,7.33
2019-02-23T18:37:08.509Z,7.73
2019-02-23T18:41:16.803Z,7.33
2019-02-23T18:45:25.046Z,7.43
2019-02-23T18:49:33.410Z,7.07
2019-02-23T18:53:41.622Z,6.43
2019-02-23T18:57:49.827Z,6.60
2019-02-23T19:01:58.085Z,6.80
2019-02-23T19:06:06.379Z,7.10
2019-02-23T19:10:14.607Z,7.47
2019-02-23T19:14:22.851Z,7.20
2019-02-23T19:18:31.118Z,7.27
2019-02-23T19:22:39.427Z,8.43
2019-02-23T19:26:47.699Z,8.20
2019-02-23T19:30:55.932Z,6.93
2019-02-23T19:35:04.622Z,7.37
2019-02-23T19:39:12.817Z,7.40
2019-02-23T19:43:21.079Z,8.17
2019-02-23T19:47:32.417Z,7.87
2019-02-23T19:51:40.696Z,8.93
2019-02-23T19:55:48.903Z,8.37
2019-02-23T19:59:57.182Z,8.70
2019-02-23T20:04:05.420Z,9.43
2019-02-23T20:08:13.665Z,9.30
2019-02-23T20:12:21.933Z,8.33
2019-02-23T20:16:30.145Z,9.03
2019-02-23T20:20:38.459Z,8.70
2019-02-23T20:24:46.728Z,11.20
2019-02-23T20:28:54.961Z,9.60
2019-02-23T20:33:03.270Z,9.90
2019-02-23T20:37:11.258Z,10.70
2019-02-23T20:41:20.255Z,10.03
2019-02-23T20:45:28.551Z,9.50
2019-02-23T20:49:36.882Z,9.50
2019-02-23T20:53:45.117Z,10.10
2019-02-23T20:57:53.430Z,10.13
2019-02-23T21:02:01.693Z,9.97
2019-02-23T21:06:09.934Z,9.40
2019-02-23T21:10:18.230Z,10.27
2019-02-23T21:14:26.484Z,10.50
2019-02-23T21:18:34.773Z,10.87
2019-02-23T21:22:43.023Z,11.80
2019-02-23T21:26:51.241Z,11.80
2019-02-23T21:30:59.506Z,9.67
2019-02-23T21:35:07.831Z,9.90
2019-02-23T21:39:16.111Z,11.10
2019-02-23T21:43:24.363Z,10.30
2019-02-23T21:47:32.670Z,9.90
2019-02-23T21:51:40.930Z,10.57
2019-02-23T21:55:49.185Z,10.47
2019-02-23T21:59:57.406Z,9.73
2019-02-23T22:04:05.684Z,8.90
2019-02-23T22:08:13.932Z,10.10
2019-02-23T22:12:22.144Z,10.00
2019-02-23T22:16:30.384Z,9.73
2019-02-23T22:20:38.592Z,10.80
2019-02-23T22:24:46.877Z,10.57
2019-02-23T22:28:55.118Z,8.90
2019-02-23T22:33:03.359Z,11.40
2019-02-23T22:37:11.608Z,9.47
2019-02-23T22:41:19.842Z,10.43
2019-02-23T22:45:28.229Z,10.40
2019-02-23T22:49:36.478Z,10.10
2019-02-23T22:53:44.721Z,10.43
2019-02-23T22:57:52.970Z,9.20
2019-02-23T23:02:01.185Z,10.47
2019-02-23T23:06:09.453Z,10.27
2019-02-23T23:10:17.729Z,10.07
2019-02-23T23:14:25.966Z,12.00
2019-02-23T23:18:34.220Z,9.13
2019-02-23T23:22:42.437Z,10.17
2019-02-23T23:26:50.673Z,9.80
2019-02-23T23:30:58.918Z,10.13
2019-02-23T23:35:07.185Z,10.03
2019-02-23T23:39:15.426Z,11.10
2019-02-23T23:43:23.645Z,10.60
2019-02-23T23:47:31.951Z,11.43
2019-02-23T23:51:40.225Z,11.57
2019-02-23T23:55:48.462Z,10.50
2019-02-23T23:59:56.702Z,10.57
